sensor_id;sensor_type;location;lat;lon;timestamp;temperature;humidity
45729;DHT22;31439;53.512;10.206;2022-11-04T00:01:53;11.20;99.90
45729;DHT22;31439;53.512;10.206;2022-11-04T00:04:21;11.20;99.90
45729;DHT22;31439;53.512;10.206;2022-11-04T00:06:47;11.20;99.90
45729;DHT22;31439;53.512;10.206;2022-11-04T00:09:19;11.20;99.90
45729;DHT22;31439;53.512;10.206;2022-11-04T00:11:45;11.20;99.90
45729;DHT22;31439;53.512;10.206;2022-11-04T00:14:30;11.20;99.90
45729;DHT22;31439;53.512;10.206;2022-11-04T00:16:56;11.30;99.90
45729;DHT22;31439;53.512;10.206;2022-11-04T00:19:41;11.30;99.90
45729;DHT22;31439;53.512;10.206;2022-11-04T00:22:25;11.20;99.90
45729;DHT22;31439;53.512;10.206;2022-11-04T00:25:09;11.20;99.90
45729;DHT22;31439;53.512;10.206;2022-11-04T00:28:11;11.30;99.90
45729;DHT22;31439;53.512;10.206;2022-11-04T00:30:56;11.30;99.90
45729;DHT22;31439;53.512;10.206;2022-11-04T00:33:22;11.30;99.90
45729;DHT22;31439;53.512;10.206;2022-11-04T00:35:53;11.50;99.90
45729;DHT22;31439;53.512;10.206;2022-11-04T00:38:19;11.40;99.90
45729;DHT22;31439;53.512;10.206;2022-11-04T00:40:44;11.40;99.90
45729;DHT22;31439;53.512;10.206;2022-11-04T00:43:10;11.30;99.90
45729;DHT22;31439;53.512;10.206;2022-11-04T00:45:36;11.30;99.90
45729;DHT22;31439;53.512;10.206;2022-11-04T00:48:02;11.30;99.90
45729;DHT22;31439;53.512;10.206;2022-11-04T00:50:27;11.20;99.90
45729;DHT22;31439;53.512;10.206;2022-11-04T00:52:59;11.30;99.90
45729;DHT22;31439;53.512;10.206;2022-11-04T00:55:25;11.50;99.90
45729;DHT22;31439;53.512;10.206;2022-11-04T00:57:51;11.30;99.90
45729;DHT22;31439;53.512;10.206;2022-11-04T01:00:16;11.30;99.90
45729;DHT22;31439;53.512;10.206;2022-11-04T01:02:42;11.30;99.90
45729;DHT22;31439;53.512;10.206;2022-11-04T01:05:08;11.20;99.90
45729;DHT22;31439;53.512;10.206;2022-11-04T01:07:33;11.20;99.90
45729;DHT22;31439;53.512;10.206;2022-11-04T01:09:59;11.20;99.90
45729;DHT22;31439;53.512;10.206;2022-11-04T01:12:24;11.20;99.90
45729;DHT22;31439;53.512;10.206;2022-11-04T01:14:50;11.20;99.90
45729;DHT22;31439;53.512;10.206;2022-11-04T01:17:16;11.30;99.90
45729;DHT22;31439;53.512;10.206;2022-11-04T01:19:41;11.20;99.90
45729;DHT22;31439;53.512;10.206;2022-11-04T01:22:07;11.50;99.90
45729;DHT22;31439;53.512;10.206;2022-11-04T01:24:32;11.40;99.90
45729;DHT22;31439;53.512;10.206;2022-11-04T01:26:58;11.30;99.90
45729;DHT22;31439;53.512;10.206;2022-11-04T01:29:24;11.40;99.90
45729;DHT22;31439;53.512;10.206;2022-11-04T01:31:49;11.40;99.90
45729;DHT22;31439;53.512;10.206;2022-11-04T01:34:15;11.40;99.90
45729;DHT22;31439;53.512;10.206;2022-11-04T01:36:40;11.30;99.90
45729;DHT22;31439;53.512;10.206;2022-11-04T01:39:06;11.40;99.90
45729;DHT22;31439;53.512;10.206;2022-11-04T01:41:32;11.40;99.90
45729;DHT22;31439;53.512;10.206;2022-11-04T01:44:04;11.40;99.90
45729;DHT22;31439;53.512;10.206;2022-11-04T01:46:50;11.40;99.90
45729;DHT22;31439;53.512;10.206;2022-11-04T01:49:29;11.50;99.90
45729;DHT22;31439;53.512;10.206;2022-11-04T01:52:02;11.30;99.90
45729;DHT22;31439;53.512;10.206;2022-11-04T01:54:30;11.30;99.90
45729;DHT22;31439;53.512;10.206;2022-11-04T01:56:57;11.30;99.90
45729;DHT22;31439;53.512;10.206;2022-11-04T01:59:27;11.40;99.90
45729;DHT22;31439;53.512;10.206;2022-11-04T02:01:54;11.40;99.90
45729;DHT22;31439;53.512;10.206;2022-11-04T02:04:20;11.40;99.90
45729;DHT22;31439;53.512;10.206;2022-11-04T02:07:07;11.40;99.90
45729;DHT22;31439;53.512;10.206;2022-11-04T02:09:35;11.40;99.90
45729;DHT22;31439;53.512;10.206;2022-11-04T02:12:01;11.40;99.90
45729;DHT22;31439;53.512;10.206;2022-11-04T02:14:47;11.40;99.90
45729;DHT22;31439;53.512;10.206;2022-11-04T02:17:31;11.40;99.90
45729;DHT22;31439;53.512;10.206;2022-11-04T02:20:12;11.40;99.90
45729;DHT22;31439;53.512;10.206;2022-11-04T02:28:20;11.50;99.90
45729;DHT22;31439;53.512;10.206;2022-11-04T02:31:14;11.50;99.90
45729;DHT22;31439;53.512;10.206;2022-11-04T02:33:55;11.50;99.90
45729;DHT22;31439;53.512;10.206;2022-11-04T02:36:29;11.50;99.90
45729;DHT22;31439;53.512;10.206;2022-11-04T02:39:08;11.50;99.90
45729;DHT22;31439;53.512;10.206;2022-11-04T02:41:56;11.50;99.90
45729;DHT22;31439;53.512;10.206;2022-11-04T02:44:38;11.50;99.90
45729;DHT22;31439;53.512;10.206;2022-11-04T02:47:10;11.50;99.90
45729;DHT22;31439;53.512;10.206;2022-11-04T02:49:43;11.50;99.90
45729;DHT22;31439;53.512;10.206;2022-11-04T02:52:13;11.50;99.90
45729;DHT22;31439;53.512;10.206;2022-11-04T02:54:46;11.60;99.90
45729;DHT22;31439;53.512;10.206;2022-11-04T02:57:18;11.60;99.90
45729;DHT22;31439;53.512;10.206;2022-11-04T02:59:48;11.50;99.90
45729;DHT22;31439;53.512;10.206;2022-11-04T03:02:26;11.50;99.90
45729;DHT22;31439;53.512;10.206;2022-11-04T03:04:54;11.50;99.90
45729;DHT22;31439;53.512;10.206;2022-11-04T03:07:24;11.50;99.90
45729;DHT22;31439;53.512;10.206;2022-11-04T03:09:57;11.50;99.90
45729;DHT22;31439;53.512;10.206;2022-11-04T03:12:28;11.50;99.90
45729;DHT22;31439;53.512;10.206;2022-11-04T03:15:00;11.50;99.90
45729;DHT22;31439;53.512;10.206;2022-11-04T03:17:33;11.50;99.90
45729;DHT22;31439;53.512;10.206;2022-11-04T03:20:05;11.50;99.90
45729;DHT22;31439;53.512;10.206;2022-11-04T03:22:35;11.50;99.90
45729;DHT22;31439;53.512;10.206;2022-11-04T03:25:05;11.50;99.90
45729;DHT22;31439;53.512;10.206;2022-11-04T03:27:42;11.50;99.90
45729;DHT22;31439;53.512;10.206;2022-11-04T03:30:19;11.60;99.90
45729;DHT22;31439;53.512;10.206;2022-11-04T03:35:33;11.50;99.90
45729;DHT22;31439;53.512;10.206;2022-11-04T03:37:59;11.50;99.90
45729;DHT22;31439;53.512;10.206;2022-11-04T03:40:25;11.40;99.90
45729;DHT22;31439;53.512;10.206;2022-11-04T03:42:55;11.50;99.90
45729;DHT22;31439;53.512;10.206;2022-11-04T03:45:23;11.40;99.90
45729;DHT22;31439;53.512;10.206;2022-11-04T03:47:50;11.40;99.90
45729;DHT22;31439;53.512;10.206;2022-11-04T03:50:22;11.50;99.90
45729;DHT22;31439;53.512;10.206;2022-11-04T03:52:50;11.50;99.90
45729;DHT22;31439;53.512;10.206;2022-11-04T03:55:16;11.50;99.90
45729;DHT22;31439;53.512;10.206;2022-11-04T03:57:53;11.40;99.90
45729;DHT22;31439;53.512;10.206;2022-11-04T04:00:21;11.50;99.90
45729;DHT22;31439;53.512;10.206;2022-11-04T04:03:01;11.50;99.90
45729;DHT22;31439;53.512;10.206;2022-11-04T04:05:44;11.40;99.90
45729;DHT22;31439;53.512;10.206;2022-11-04T04:08:32;11.50;99.90
45729;DHT22;31439;53.512;10.206;2022-11-04T04:11:28;11.50;99.90
45729;DHT22;31439;53.512;10.206;2022-11-04T04:20:30;11.40;99.90
45729;DHT22;31439;53.512;10.206;2022-11-04T04:23:14;11.40;99.90
45729;DHT22;31439;53.512;10.206;2022-11-04T04:26:02;11.40;99.90
45729;DHT22;31439;53.512;10.206;2022-11-04T04:28:52;11.40;99.90
45729;DHT22;31439;53.512;10.206;2022-11-04T04:31:21;11.40;99.90
45729;DHT22;31439;53.512;10.206;2022-11-04T04:34:09;11.30;99.90
45729;DHT22;31439;53.512;10.206;2022-11-04T04:37:00;11.30;99.90
45729;DHT22;31439;53.512;10.206;2022-11-04T04:39:41;11.30;99.90
45729;DHT22;31439;53.512;10.206;2022-11-04T04:42:30;11.30;99.90
45729;DHT22;31439;53.512;10.206;2022-11-04T04:45:23;11.30;99.90
45729;DHT22;31439;53.512;10.206;2022-11-04T04:47:53;11.20;99.90
45729;DHT22;31439;53.512;10.206;2022-11-04T04:50:25;11.20;99.90
45729;DHT22;31439;53.512;10.206;2022-11-04T04:52:52;11.30;99.90
45729;DHT22;31439;53.512;10.206;2022-11-04T04:55:22;11.30;99.90
45729;DHT22;31439;53.512;10.206;2022-11-04T04:57:47;11.30;99.90
45729;DHT22;31439;53.512;10.206;2022-11-04T05:00:18;11.30;99.90
45729;DHT22;31439;53.512;10.206;2022-11-04T05:02:47;11.30;99.90
45729;DHT22;31439;53.512;10.206;2022-11-04T05:05:17;11.30;99.90
45729;DHT22;31439;53.512;10.206;2022-11-04T05:07:46;11.30;99.90
45729;DHT22;31439;53.512;10.206;2022-11-04T05:10:13;11.30;99.90
45729;DHT22;31439;53.512;10.206;2022-11-04T05:12:41;11.30;99.90
45729;DHT22;31439;53.512;10.206;2022-11-04T05:15:30;11.30;99.90
45729;DHT22;31439;53.512;10.206;2022-11-04T05:18:00;11.30;99.90
45729;DHT22;31439;53.512;10.206;2022-11-04T05:20:35;11.30;99.90
45729;DHT22;31439;53.512;10.206;2022-11-04T05:23:06;11.30;99.90
45729;DHT22;31439;53.512;10.206;2022-11-04T05:25:35;11.40;99.90
45729;DHT22;31439;53.512;10.206;2022-11-04T05:28:01;11.40;99.90
45729;DHT22;31439;53.512;10.206;2022-11-04T05:30:30;11.60;99.90
45729;DHT22;31439;53.512;10.206;2022-11-04T05:32:58;11.40;99.90
45729;DHT22;31439;53.512;10.206;2022-11-04T05:35:24;11.40;99.90
45729;DHT22;31439;53.512;10.206;2022-11-04T05:37:54;11.40;99.90
45729;DHT22;31439;53.512;10.206;2022-11-04T05:40:23;11.40;99.90
45729;DHT22;31439;53.512;10.206;2022-11-04T05:42:52;11.30;99.90
45729;DHT22;31439;53.512;10.206;2022-11-04T05:45:18;11.30;99.90
45729;DHT22;31439;53.512;10.206;2022-11-04T05:47:46;11.40;99.90
45729;DHT22;31439;53.512;10.206;2022-11-04T05:50:12;11.40;99.90
45729;DHT22;31439;53.512;10.206;2022-11-04T05:52:37;11.40;99.90
45729;DHT22;31439;53.512;10.206;2022-11-04T05:55:03;11.40;99.90
45729;DHT22;31439;53.512;10.206;2022-11-04T05:57:28;11.40;99.90
45729;DHT22;31439;53.512;10.206;2022-11-04T05:59:54;11.40;99.90
45729;DHT22;31439;53.512;10.206;2022-11-04T06:02:20;11.40;99.90
45729;DHT22;31439;53.512;10.206;2022-11-04T06:04:45;11.30;99.90
45729;DHT22;31439;53.512;10.206;2022-11-04T06:07:11;11.40;99.90
45729;DHT22;31439;53.512;10.206;2022-11-04T06:09:37;11.40;99.90
45729;DHT22;31439;53.512;10.206;2022-11-04T06:12:08;11.50;99.90
45729;DHT22;31439;53.512;10.206;2022-11-04T06:14:34;11.40;99.90
45729;DHT22;31439;53.512;10.206;2022-11-04T06:17:00;11.50;99.90
45729;DHT22;31439;53.512;10.206;2022-11-04T06:19:26;11.40;99.90
45729;DHT22;31439;53.512;10.206;2022-11-04T06:21:51;11.50;99.90
45729;DHT22;31439;53.512;10.206;2022-11-04T06:24:17;11.60;99.90
45729;DHT22;31439;53.512;10.206;2022-11-04T06:26:42;11.50;99.90
45729;DHT22;31439;53.512;10.206;2022-11-04T06:29:08;11.50;99.90
45729;DHT22;31439;53.512;10.206;2022-11-04T06:31:34;11.50;99.90
45729;DHT22;31439;53.512;10.206;2022-11-04T06:34:00;11.40;99.90
45729;DHT22;31439;53.512;10.206;2022-11-04T06:36:25;11.40;99.90
45729;DHT22;31439;53.512;10.206;2022-11-04T06:38:51;11.50;99.90
45729;DHT22;31439;53.512;10.206;2022-11-04T06:41:16;11.40;99.90
45729;DHT22;31439;53.512;10.206;2022-11-04T06:43:42;11.40;99.90
45729;DHT22;31439;53.512;10.206;2022-11-04T06:46:39;11.40;99.90
45729;DHT22;31439;53.512;10.206;2022-11-04T06:49:08;11.40;99.90
45729;DHT22;31439;53.512;10.206;2022-11-04T06:51:34;11.50;99.90
45729;DHT22;31439;53.512;10.206;2022-11-04T06:54:00;11.60;99.90
45729;DHT22;31439;53.512;10.206;2022-11-04T06:56:25;11.40;99.90
45729;DHT22;31439;53.512;10.206;2022-11-04T06:58:53;11.50;99.90
45729;DHT22;31439;53.512;10.206;2022-11-04T07:01:19;11.50;99.90
45729;DHT22;31439;53.512;10.206;2022-11-04T07:03:53;11.40;99.90
45729;DHT22;31439;53.512;10.206;2022-11-04T07:06:19;11.50;99.90
45729;DHT22;31439;53.512;10.206;2022-11-04T07:08:46;11.50;99.90
45729;DHT22;31439;53.512;10.206;2022-11-04T07:11:12;11.50;99.90
45729;DHT22;31439;53.512;10.206;2022-11-04T07:13:38;11.40;99.90
45729;DHT22;31439;53.512;10.206;2022-11-04T07:16:06;11.40;99.90
45729;DHT22;31439;53.512;10.206;2022-11-04T07:18:31;11.40;99.90
45729;DHT22;31439;53.512;10.206;2022-11-04T07:20:58;11.50;99.90
45729;DHT22;31439;53.512;10.206;2022-11-04T07:23:24;11.50;99.90
45729;DHT22;31439;53.512;10.206;2022-11-04T07:25:49;11.40;99.90
45729;DHT22;31439;53.512;10.206;2022-11-04T07:28:15;11.40;99.90
45729;DHT22;31439;53.512;10.206;2022-11-04T07:30:41;11.50;99.90
45729;DHT22;31439;53.512;10.206;2022-11-04T07:33:07;11.50;99.90
45729;DHT22;31439;53.512;10.206;2022-11-04T07:35:32;11.40;99.90
45729;DHT22;31439;53.512;10.206;2022-11-04T07:37:58;11.40;99.90
45729;DHT22;31439;53.512;10.206;2022-11-04T07:40:24;11.40;99.90
45729;DHT22;31439;53.512;10.206;2022-11-04T07:42:49;11.30;99.90
45729;DHT22;31439;53.512;10.206;2022-11-04T07:45:15;11.30;99.90
45729;DHT22;31439;53.512;10.206;2022-11-04T07:47:41;11.30;99.90
45729;DHT22;31439;53.512;10.206;2022-11-04T07:50:06;11.30;99.90
45729;DHT22;31439;53.512;10.206;2022-11-04T07:52:32;11.30;99.90
45729;DHT22;31439;53.512;10.206;2022-11-04T07:54:58;11.40;99.90
45729;DHT22;31439;53.512;10.206;2022-11-04T07:57:23;11.40;99.90
45729;DHT22;31439;53.512;10.206;2022-11-04T07:59:49;11.30;99.90
45729;DHT22;31439;53.512;10.206;2022-11-04T08:02:14;11.40;99.90
45729;DHT22;31439;53.512;10.206;2022-11-04T08:04:40;11.40;99.90
45729;DHT22;31439;53.512;10.206;2022-11-04T08:07:08;11.40;99.90
45729;DHT22;31439;53.512;10.206;2022-11-04T08:09:34;11.50;99.90
45729;DHT22;31439;53.512;10.206;2022-11-04T08:12:04;11.50;99.90
45729;DHT22;31439;53.512;10.206;2022-11-04T08:14:30;11.50;99.90
45729;DHT22;31439;53.512;10.206;2022-11-04T08:16:55;11.60;99.90
45729;DHT22;31439;53.512;10.206;2022-11-04T08:19:21;11.60;99.90
45729;DHT22;31439;53.512;10.206;2022-11-04T08:21:47;11.60;99.90
45729;DHT22;31439;53.512;10.206;2022-11-04T08:24:12;11.60;99.90
45729;DHT22;31439;53.512;10.206;2022-11-04T08:26:38;11.70;99.90
45729;DHT22;31439;53.512;10.206;2022-11-04T08:29:07;11.70;99.90
45729;DHT22;31439;53.512;10.206;2022-11-04T08:31:33;11.50;99.90
45729;DHT22;31439;53.512;10.206;2022-11-04T08:33:59;11.40;99.90
45729;DHT22;31439;53.512;10.206;2022-11-04T08:36:33;11.40;99.90
45729;DHT22;31439;53.512;10.206;2022-11-04T08:39:02;11.40;99.90
45729;DHT22;31439;53.512;10.206;2022-11-04T08:41:30;11.40;99.90
45729;DHT22;31439;53.512;10.206;2022-11-04T08:43:57;11.40;99.90
45729;DHT22;31439;53.512;10.206;2022-11-04T08:46:31;11.60;99.90
45729;DHT22;31439;53.512;10.206;2022-11-04T08:48:57;11.40;99.90
45729;DHT22;31439;53.512;10.206;2022-11-04T08:51:24;11.50;99.90
45729;DHT22;31439;53.512;10.206;2022-11-04T08:53:51;11.50;99.90
45729;DHT22;31439;53.512;10.206;2022-11-04T08:58:42;11.50;99.90
45729;DHT22;31439;53.512;10.206;2022-11-04T09:01:07;11.60;99.90
45729;DHT22;31439;53.512;10.206;2022-11-04T09:03:36;11.60;99.90
45729;DHT22;31439;53.512;10.206;2022-11-04T09:06:04;11.60;99.90
45729;DHT22;31439;53.512;10.206;2022-11-04T09:08:30;11.60;99.90
45729;DHT22;31439;53.512;10.206;2022-11-04T09:10:56;11.60;99.90
45729;DHT22;31439;53.512;10.206;2022-11-04T09:13:21;11.70;99.90
45729;DHT22;31439;53.512;10.206;2022-11-04T09:15:47;11.50;99.90
45729;DHT22;31439;53.512;10.206;2022-11-04T09:18:13;11.60;99.90
45729;DHT22;31439;53.512;10.206;2022-11-04T09:20:39;11.60;99.90
45729;DHT22;31439;53.512;10.206;2022-11-04T09:23:07;11.60;99.90
45729;DHT22;31439;53.512;10.206;2022-11-04T09:25:33;11.70;99.90
45729;DHT22;31439;53.512;10.206;2022-11-04T09:27:59;11.70;99.90
45729;DHT22;31439;53.512;10.206;2022-11-04T09:30:25;11.80;99.90
45729;DHT22;31439;53.512;10.206;2022-11-04T09:32:50;11.90;99.90
45729;DHT22;31439;53.512;10.206;2022-11-04T09:35:16;11.80;99.90
45729;DHT22;31439;53.512;10.206;2022-11-04T09:37:43;11.90;99.90
45729;DHT22;31439;53.512;10.206;2022-11-04T09:40:14;12.00;99.90
45729;DHT22;31439;53.512;10.206;2022-11-04T09:45:15;11.80;99.90
45729;DHT22;31439;53.512;10.206;2022-11-04T09:47:45;12.00;99.90
45729;DHT22;31439;53.512;10.206;2022-11-04T09:50:30;12.30;99.90
45729;DHT22;31439;53.512;10.206;2022-11-04T09:53:02;12.30;99.90
45729;DHT22;31439;53.512;10.206;2022-11-04T09:55:33;12.40;99.90
45729;DHT22;31439;53.512;10.206;2022-11-04T09:57:59;12.50;99.90
45729;DHT22;31439;53.512;10.206;2022-11-04T10:00:25;12.30;99.90
45729;DHT22;31439;53.512;10.206;2022-11-04T10:11:15;12.40;99.90
45729;DHT22;31439;53.512;10.206;2022-11-04T10:16:17;12.20;99.90
45729;DHT22;31439;53.512;10.206;2022-11-04T10:18:59;12.20;99.90
45729;DHT22;31439;53.512;10.206;2022-11-04T10:24:12;12.20;99.90
45729;DHT22;31439;53.512;10.206;2022-11-04T10:26:45;12.10;99.90
45729;DHT22;31439;53.512;10.206;2022-11-04T10:29:36;12.10;99.90
45729;DHT22;31439;53.512;10.206;2022-11-04T10:32:03;12.30;99.90
45729;DHT22;31439;53.512;10.206;2022-11-04T10:34:38;12.20;99.90
45729;DHT22;31439;53.512;10.206;2022-11-04T10:37:10;12.20;99.90
45729;DHT22;31439;53.512;10.206;2022-11-04T10:39:41;12.10;99.90
45729;DHT22;31439;53.512;10.206;2022-11-04T10:42:10;12.10;99.90
45729;DHT22;31439;53.512;10.206;2022-11-04T10:44:37;12.10;99.90
45729;DHT22;31439;53.512;10.206;2022-11-04T10:52:32;12.00;99.90
45729;DHT22;31439;53.512;10.206;2022-11-04T10:54:59;12.00;99.90
45729;DHT22;31439;53.512;10.206;2022-11-04T10:57:24;12.10;99.90
45729;DHT22;31439;53.512;10.206;2022-11-04T10:59:55;12.10;99.90
45729;DHT22;31439;53.512;10.206;2022-11-04T11:07:38;12.40;99.90
45729;DHT22;31439;53.512;10.206;2022-11-04T11:10:04;12.40;99.90
45729;DHT22;31439;53.512;10.206;2022-11-04T11:12:29;12.50;99.90
45729;DHT22;31439;53.512;10.206;2022-11-04T11:15:27;12.50;99.90
45729;DHT22;31439;53.512;10.206;2022-11-04T11:18:16;12.50;99.90
45729;DHT22;31439;53.512;10.206;2022-11-04T11:21:02;12.50;99.90
45729;DHT22;31439;53.512;10.206;2022-11-04T11:23:34;12.50;99.90
45729;DHT22;31439;53.512;10.206;2022-11-04T11:26:02;12.50;99.90
45729;DHT22;31439;53.512;10.206;2022-11-04T11:28:28;12.50;99.90
45729;DHT22;31439;53.512;10.206;2022-11-04T11:30:57;12.70;99.90
45729;DHT22;31439;53.512;10.206;2022-11-04T11:33:30;12.80;99.90
45729;DHT22;31439;53.512;10.206;2022-11-04T11:36:05;13.00;99.90
45729;DHT22;31439;53.512;10.206;2022-11-04T11:38:37;13.00;99.90
45729;DHT22;31439;53.512;10.206;2022-11-04T11:41:10;13.30;99.90
45729;DHT22;31439;53.512;10.206;2022-11-04T11:43:41;13.50;99.90
45729;DHT22;31439;53.512;10.206;2022-11-04T11:46:09;13.90;99.90
45729;DHT22;31439;53.512;10.206;2022-11-04T11:48:43;14.10;99.90
45729;DHT22;31439;53.512;10.206;2022-11-04T11:51:22;14.30;99.90
45729;DHT22;31439;53.512;10.206;2022-11-04T11:54:18;14.20;99.90
45729;DHT22;31439;53.512;10.206;2022-11-04T11:56:53;14.40;99.90
45729;DHT22;31439;53.512;10.206;2022-11-04T11:59:27;14.50;99.90
45729;DHT22;31439;53.512;10.206;2022-11-04T12:04:52;14.30;99.90
45729;DHT22;31439;53.512;10.206;2022-11-04T12:08:31;14.20;99.90
45729;DHT22;31439;53.512;10.206;2022-11-04T12:11:09;14.30;99.90
45729;DHT22;31439;53.512;10.206;2022-11-04T12:13:43;14.20;99.90
45729;DHT22;31439;53.512;10.206;2022-11-04T12:24:51;13.60;99.90
45729;DHT22;31439;53.512;10.206;2022-11-04T12:27:23;13.50;99.90
45729;DHT22;31439;53.512;10.206;2022-11-04T12:30:11;13.60;99.90
45729;DHT22;31439;53.512;10.206;2022-11-04T12:55:03;13.30;99.90
45729;DHT22;31439;53.512;10.206;2022-11-04T12:57:57;13.20;99.90
45729;DHT22;31439;53.512;10.206;2022-11-04T13:00:28;13.30;99.90
45729;DHT22;31439;53.512;10.206;2022-11-04T13:03:12;13.30;99.90
45729;DHT22;31439;53.512;10.206;2022-11-04T13:05:49;13.60;99.90
45729;DHT22;31439;53.512;10.206;2022-11-04T13:13:55;13.60;99.90
45729;DHT22;31439;53.512;10.206;2022-11-04T13:16:21;13.60;99.90
45729;DHT22;31439;53.512;10.206;2022-11-04T13:18:47;13.60;99.90
45729;DHT22;31439;53.512;10.206;2022-11-04T13:21:25;13.50;99.90
45729;DHT22;31439;53.512;10.206;2022-11-04T13:33:26;13.20;99.90
45729;DHT22;31439;53.512;10.206;2022-11-04T13:36:14;13.20;99.90
45729;DHT22;31439;53.512;10.206;2022-11-04T13:38:55;13.20;99.90
45729;DHT22;31439;53.512;10.206;2022-11-04T13:41:52;13.30;99.90
45729;DHT22;31439;53.512;10.206;2022-11-04T13:44:45;13.20;99.90
45729;DHT22;31439;53.512;10.206;2022-11-04T13:47:29;14.40;99.90
45729;DHT22;31439;53.512;10.206;2022-11-04T13:49:58;13.20;99.90
45729;DHT22;31439;53.512;10.206;2022-11-04T13:52:29;13.20;99.90
45729;DHT22;31439;53.512;10.206;2022-11-04T13:54:56;13.10;99.90
45729;DHT22;31439;53.512;10.206;2022-11-04T13:57:25;13.10;99.90
45729;DHT22;31439;53.512;10.206;2022-11-04T14:02:39;13.10;99.90
45729;DHT22;31439;53.512;10.206;2022-11-04T14:11:03;13.10;99.90
45729;DHT22;31439;53.512;10.206;2022-11-04T14:16:10;13.20;99.90
45729;DHT22;31439;53.512;10.206;2022-11-04T14:18:38;13.10;99.90
45729;DHT22;31439;53.512;10.206;2022-11-04T14:23:30;13.10;99.90
45729;DHT22;31439;53.512;10.206;2022-11-04T14:26:05;13.20;99.90
45729;DHT22;31439;53.512;10.206;2022-11-04T14:28:31;13.00;99.90
45729;DHT22;31439;53.512;10.206;2022-11-04T14:31:00;13.10;99.90
45729;DHT22;31439;53.512;10.206;2022-11-04T14:34:15;13.10;99.90
45729;DHT22;31439;53.512;10.206;2022-11-04T14:38:57;13.00;99.90
45729;DHT22;31439;53.512;10.206;2022-11-04T14:43:54;13.00;99.90
45729;DHT22;31439;53.512;10.206;2022-11-04T14:46:24;13.10;99.90
45729;DHT22;31439;53.512;10.206;2022-11-04T14:48:53;13.10;99.90
45729;DHT22;31439;53.512;10.206;2022-11-04T14:51:33;13.10;99.90
45729;DHT22;31439;53.512;10.206;2022-11-04T14:54:14;13.00;99.90
45729;DHT22;31439;53.512;10.206;2022-11-04T14:56:42;13.00;99.90
45729;DHT22;31439;53.512;10.206;2022-11-04T14:59:20;13.00;99.90
45729;DHT22;31439;53.512;10.206;2022-11-04T15:01:46;12.90;99.90
45729;DHT22;31439;53.512;10.206;2022-11-04T15:04:24;12.90;99.90
45729;DHT22;31439;53.512;10.206;2022-11-04T15:06:55;12.90;99.90
45729;DHT22;31439;53.512;10.206;2022-11-04T15:09:25;13.00;99.90
45729;DHT22;31439;53.512;10.206;2022-11-04T15:12:10;13.20;99.90
45729;DHT22;31439;53.512;10.206;2022-11-04T15:14:56;13.20;99.90
45729;DHT22;31439;53.512;10.206;2022-11-04T15:17:25;13.00;99.90
45729;DHT22;31439;53.512;10.206;2022-11-04T15:19:54;13.10;99.90
45729;DHT22;31439;53.512;10.206;2022-11-04T15:22:20;13.00;99.90
45729;DHT22;31439;53.512;10.206;2022-11-04T15:24:47;13.00;99.90
45729;DHT22;31439;53.512;10.206;2022-11-04T15:27:16;13.00;99.90
45729;DHT22;31439;53.512;10.206;2022-11-04T15:29:55;13.00;99.90
45729;DHT22;31439;53.512;10.206;2022-11-04T15:32:22;12.90;99.90
45729;DHT22;31439;53.512;10.206;2022-11-04T15:34:49;13.20;99.90
45729;DHT22;31439;53.512;10.206;2022-11-04T15:37:15;12.80;99.90
45729;DHT22;31439;53.512;10.206;2022-11-04T15:39:47;13.20;99.90
45729;DHT22;31439;53.512;10.206;2022-11-04T15:42:20;13.00;99.90
45729;DHT22;31439;53.512;10.206;2022-11-04T15:48:31;13.00;99.90
45729;DHT22;31439;53.512;10.206;2022-11-04T15:53:58;12.80;99.90
45729;DHT22;31439;53.512;10.206;2022-11-04T15:56:27;12.70;99.90
45729;DHT22;31439;53.512;10.206;2022-11-04T15:58:57;12.70;99.90
45729;DHT22;31439;53.512;10.206;2022-11-04T16:01:23;12.60;99.90
45729;DHT22;31439;53.512;10.206;2022-11-04T16:03:57;12.80;99.90
45729;DHT22;31439;53.512;10.206;2022-11-04T16:06:35;12.60;99.90
45729;DHT22;31439;53.512;10.206;2022-11-04T16:09:24;12.60;99.90
45729;DHT22;31439;53.512;10.206;2022-11-04T16:14:52;12.70;99.90
45729;DHT22;31439;53.512;10.206;2022-11-04T16:17:18;12.60;99.90
45729;DHT22;31439;53.512;10.206;2022-11-04T16:19:47;12.30;99.90
45729;DHT22;31439;53.512;10.206;2022-11-04T16:22:23;12.50;99.90
45729;DHT22;31439;53.512;10.206;2022-11-04T16:24:51;12.40;99.90
45729;DHT22;31439;53.512;10.206;2022-11-04T16:27:19;12.60;99.90
45729;DHT22;31439;53.512;10.206;2022-11-04T16:29:52;12.40;99.90
45729;DHT22;31439;53.512;10.206;2022-11-04T16:32:28;12.70;99.90
45729;DHT22;31439;53.512;10.206;2022-11-04T16:34:58;12.40;99.90
45729;DHT22;31439;53.512;10.206;2022-11-04T16:37:25;12.40;99.90
45729;DHT22;31439;53.512;10.206;2022-11-04T16:39:51;12.40;99.90
45729;DHT22;31439;53.512;10.206;2022-11-04T16:42:17;12.40;99.90
45729;DHT22;31439;53.512;10.206;2022-11-04T16:44:48;13.50;99.90
45729;DHT22;31439;53.512;10.206;2022-11-04T16:47:14;12.40;99.90
45729;DHT22;31439;53.512;10.206;2022-11-04T16:49:39;12.40;99.90
45729;DHT22;31439;53.512;10.206;2022-11-04T16:52:08;12.40;99.90
45729;DHT22;31439;53.512;10.206;2022-11-04T16:54:37;12.40;99.90
45729;DHT22;31439;53.512;10.206;2022-11-04T16:57:02;12.20;99.90
45729;DHT22;31439;53.512;10.206;2022-11-04T16:59:31;12.40;99.90
45729;DHT22;31439;53.512;10.206;2022-11-04T17:01:56;12.40;99.90
45729;DHT22;31439;53.512;10.206;2022-11-04T17:04:22;12.40;99.90
45729;DHT22;31439;53.512;10.206;2022-11-04T17:06:47;12.30;99.90
45729;DHT22;31439;53.512;10.206;2022-11-04T17:09:22;12.30;99.90
45729;DHT22;31439;53.512;10.206;2022-11-04T17:11:48;12.20;99.90
45729;DHT22;31439;53.512;10.206;2022-11-04T17:14:13;12.20;99.90
45729;DHT22;31439;53.512;10.206;2022-11-04T17:16:41;12.20;99.90
45729;DHT22;31439;53.512;10.206;2022-11-04T17:19:12;12.20;99.90
45729;DHT22;31439;53.512;10.206;2022-11-04T17:21:38;12.10;99.90
45729;DHT22;31439;53.512;10.206;2022-11-04T17:24:04;12.10;99.90
45729;DHT22;31439;53.512;10.206;2022-11-04T17:26:29;12.00;99.90
45729;DHT22;31439;53.512;10.206;2022-11-04T17:28:56;12.00;99.90
45729;DHT22;31439;53.512;10.206;2022-11-04T17:31:21;12.00;99.90
45729;DHT22;31439;53.512;10.206;2022-11-04T17:33:47;12.00;99.90
45729;DHT22;31439;53.512;10.206;2022-11-04T17:36:17;12.00;99.90
45729;DHT22;31439;53.512;10.206;2022-11-04T17:38:43;12.00;99.90
45729;DHT22;31439;53.512;10.206;2022-11-04T17:41:09;11.90;99.90